Time;durP1;ratioP1;P1;durP2;ratioP2;P2;SDS_P1;SDS_P2;PMS_P1;PMS_P2;Temp;Humidity;BMP_temperature;BMP_pressure;BME280_temperature;BME280_humidity;BME280_pressure;Samples;Min_cycle;Max_cycle;Signal;HPM_P1;HPM_P2
2021/05/31 00:01:25;;;;;;;7.35;3.10;;;;;;;;;;5054658;28;20025;-75
2021/05/31 00:03:50;;;;;;;4.70;3.35;;;;;;;;;;5054601;28;20037;-75
2021/05/31 00:06:15;;;;;;;4.57;3.72;;;;;;;;;;5054366;28;20033;-75
2021/05/31 00:08:41;;;;;;;6.53;3.72;;;;;;;;;;5053515;28;20063;-75
2021/05/31 00:11:07;;;;;;;4.25;3.15;;;;;;;;;;5053120;28;20033;-75
2021/05/31 00:13:32;;;;;;;4.40;3.63;;;;;;;;;;5054431;28;20387;-75
2021/05/31 00:15:57;;;;;;;4.93;3.88;;;;;;;;;;5054504;28;20467;-75
2021/05/31 00:18:24;;;;;;;3.88;3.45;;;;;;;;;;5052834;28;20040;-75
2021/05/31 00:20:50;;;;;;;6.78;3.53;;;;;;;;;;5054023;28;20037;-75
2021/05/31 00:23:17;;;;;;;3.90;3.50;;;;;;;;;;5054067;28;20045;-75
2021/05/31 00:25:43;;;;;;;3.88;3.22;;;;;;;;;;5054001;28;20044;-75
2021/05/31 00:28:08;;;;;;;5.03;3.55;;;;;;;;;;5054097;28;20033;-75
2021/05/31 00:30:34;;;;;;;5.10;3.60;;;;;;;;;;5054142;28;20041;-75
2021/05/31 00:33:00;;;;;;;5.40;4.10;;;;;;;;;;5052943;28;20033;-75
2021/05/31 00:35:25;;;;;;;5.18;3.42;;;;;;;;;;5053646;28;20037;-75
2021/05/31 00:37:54;;;;;;;6.95;3.40;;;;;;;;;;5053999;28;20029;-75
2021/05/31 00:40:23;;;;;;;8.50;3.97;;;;;;;;;;5052767;28;20086;-75
2021/05/31 00:42:49;;;;;;;4.55;3.60;;;;;;;;;;5036086;28;20056;-75
2021/05/31 00:45:15;;;;;;;9.30;3.67;;;;;;;;;;5053484;28;20028;-75
2021/05/31 00:47:41;;;;;;;5.70;3.55;;;;;;;;;;5053598;28;20029;-75
2021/05/31 00:50:08;;;;;;;5.63;3.70;;;;;;;;;;5053703;28;20406;-75
2021/05/31 00:52:33;;;;;;;4.30;3.75;;;;;;;;;;5053777;28;20039;-75
2021/05/31 00:54:59;;;;;;;7.75;3.83;;;;;;;;;;5053326;28;20416;-75
2021/05/31 00:57:25;;;;;;;5.55;3.53;;;;;;;;;;5052293;28;20459;-75
2021/05/31 00:59:51;;;;;;;4.75;3.40;;;;;;;;;;5053597;28;20032;-75
2021/05/31 01:02:16;;;;;;;4.15;3.50;;;;;;;;;;5052243;28;20062;-75
2021/05/31 01:04:41;;;;;;;4.20;3.53;;;;;;;;;;5053594;28;20090;-75
2021/05/31 01:07:10;;;;;;;4.75;3.70;;;;;;;;;;5052982;28;20151;-75
2021/05/31 01:10:00;;;;;;;5.13;3.85;;;;;;;;;;5053155;28;20148;-75
2021/05/31 01:12:38;;;;;;;4.45;3.55;;;;;;;;;;5053242;28;20037;-75
2021/05/31 01:15:03;;;;;;;3.88;3.42;;;;;;;;;;5053164;28;20037;-75
2021/05/31 01:17:52;;;;;;;5.20;3.60;;;;;;;;;;5052357;28;20029;-75
2021/05/31 01:20:23;;;;;;;5.25;3.10;;;;;;;;;;5049336;28;20501;-75
2021/05/31 01:22:49;;;;;;;4.90;3.95;;;;;;;;;;5052952;28;20029;-75
2021/05/31 01:25:26;;;;;;;9.68;5.32;;;;;;;;;;5051467;28;20033;-75
2021/05/31 01:28:15;;;;;;;6.38;4.68;;;;;;;;;;5052716;28;20045;-75
2021/05/31 01:30:46;;;;;;;4.90;3.65;;;;;;;;;;5049947;28;20041;-75
2021/05/31 01:33:15;;;;;;;5.60;4.15;;;;;;;;;;5053142;28;20052;-75
2021/05/31 01:35:41;;;;;;;5.40;3.72;;;;;;;;;;5053204;28;20120;-75
2021/05/31 01:38:08;;;;;;;10.25;4.15;;;;;;;;;;5052943;28;20043;-75
2021/05/31 01:40:34;;;;;;;6.53;4.05;;;;;;;;;;5051773;28;20037;-75
2021/05/31 01:43:03;;;;;;;6.93;3.50;;;;;;;;;;5052524;28;20103;-75
2021/05/31 01:45:29;;;;;;;10.35;4.55;;;;;;;;;;5052811;28;20037;-75
2021/05/31 01:47:54;;;;;;;4.53;3.35;;;;;;;;;;5052768;28;20091;-75
2021/05/31 01:50:21;;;;;;;8.65;3.70;;;;;;;;;;5052929;28;20352;-75
2021/05/31 01:52:47;;;;;;;10.10;4.57;;;;;;;;;;5052917;28;20492;-75
2021/05/31 01:55:16;;;;;;;10.77;3.78;;;;;;;;;;5052567;28;20033;-75
2021/05/31 01:57:43;;;;;;;11.35;3.97;;;;;;;;;;5053039;28;20100;-75
2021/05/31 02:00:10;;;;;;;10.30;3.85;;;;;;;;;;5052821;28;20042;-75
2021/05/31 02:02:36;;;;;;;6.55;3.75;;;;;;;;;;5052582;28;20044;-75
2021/05/31 02:05:05;;;;;;;5.18;3.83;;;;;;;;;;5051442;28;20029;-75
2021/05/31 02:07:31;;;;;;;4.75;3.50;;;;;;;;;;5052506;28;20150;-75
2021/05/31 02:09:57;;;;;;;7.38;3.65;;;;;;;;;;5052602;28;20045;-75
2021/05/31 02:12:30;;;;;;;9.45;4.20;;;;;;;;;;5051717;28;20052;-75
2021/05/31 02:15:08;;;;;;;4.88;4.10;;;;;;;;;;5052601;28;20048;-74
2021/05/31 02:17:42;;;;;;;5.30;3.72;;;;;;;;;;5052410;28;20025;-74
2021/05/31 02:20:09;;;;;;;5.50;4.22;;;;;;;;;;5054947;28;20471;-74
2021/05/31 02:22:40;;;;;;;5.53;3.83;;;;;;;;;;5056341;28;20059;-75
2021/05/31 02:25:06;;;;;;;3.97;3.17;;;;;;;;;;5055200;28;20078;-75
2021/05/31 02:27:32;;;;;;;6.45;4.13;;;;;;;;;;5056301;28;20029;-75
2021/05/31 02:30:00;;;;;;;5.50;3.35;;;;;;;;;;5056186;28;20045;-74
2021/05/31 02:32:28;;;;;;;5.63;3.72;;;;;;;;;;5056352;28;20039;-75
2021/05/31 02:34:54;;;;;;;9.18;4.25;;;;;;;;;;5056229;28;20037;-75
2021/05/31 02:37:29;;;;;;;6.18;4.20;;;;;;;;;;5055975;28;20040;-75
2021/05/31 02:39:55;;;;;;;5.15;3.67;;;;;;;;;;5055163;28;20048;-75
2021/05/31 02:42:20;;;;;;;5.68;3.83;;;;;;;;;;5054252;28;20048;-75
2021/05/31 02:44:45;;;;;;;8.40;3.58;;;;;;;;;;5055898;28;20048;-75
2021/05/31 02:47:11;;;;;;;4.07;3.17;;;;;;;;;;5056088;28;20033;-75
2021/05/31 02:49:36;;;;;;;7.07;3.85;;;;;;;;;;5055903;28;20503;-75
2021/05/31 02:52:02;;;;;;;5.05;3.85;;;;;;;;;;5055678;28;20075;-75
2021/05/31 02:54:27;;;;;;;6.43;4.60;;;;;;;;;;5055965;28;20037;-76
2021/05/31 02:56:53;;;;;;;6.75;4.40;;;;;;;;;;5054485;28;20064;-75
2021/05/31 02:59:18;;;;;;;6.85;4.18;;;;;;;;;;5056123;28;20041;-80
2021/05/31 03:01:43;;;;;;;9.57;5.18;;;;;;;;;;5056068;28;20067;-75
2021/05/31 03:04:09;;;;;;;4.40;3.80;;;;;;;;;;5054647;28;20033;-75
2021/05/31 03:06:34;;;;;;;6.72;3.83;;;;;;;;;;5054525;28;20029;-75
2021/05/31 03:09:00;;;;;;;6.65;3.88;;;;;;;;;;5055032;28;20037;-75
2021/05/31 03:11:25;;;;;;;5.15;3.88;;;;;;;;;;5055133;28;20494;-75
2021/05/31 03:13:51;;;;;;;10.32;4.35;;;;;;;;;;5055175;28;20043;-75
2021/05/31 03:16:16;;;;;;;7.97;4.55;;;;;;;;;;5054481;28;20079;-75
2021/05/31 03:18:41;;;;;;;11.25;4.57;;;;;;;;;;5054316;28;20033;-75
2021/05/31 03:21:07;;;;;;;7.70;4.78;;;;;;;;;;5055300;28;20033;-75
2021/05/31 03:23:32;;;;;;;6.78;4.07;;;;;;;;;;5055373;28;20103;-75
2021/05/31 03:25:58;;;;;;;5.38;4.10;;;;;;;;;;5054222;28;20063;-75
2021/05/31 03:28:24;;;;;;;10.57;3.95;;;;;;;;;;5055064;28;20521;-75
2021/05/31 03:30:49;;;;;;;5.47;3.90;;;;;;;;;;5053787;28;20127;-75
2021/05/31 03:33:15;;;;;;;5.25;3.83;;;;;;;;;;5055103;28;20087;-75
2021/05/31 03:35:40;;;;;;;5.35;3.60;;;;;;;;;;5055380;28;20032;-75
2021/05/31 03:38:05;;;;;;;5.13;4.03;;;;;;;;;;5055136;28;20029;-75
2021/05/31 03:40:31;;;;;;;5.63;3.95;;;;;;;;;;5052862;28;20043;-75
2021/05/31 03:42:56;;;;;;;4.53;3.50;;;;;;;;;;5054806;28;20095;-75
2021/05/31 03:45:22;;;;;;;4.88;3.80;;;;;;;;;;5055161;28;20041;-75
2021/05/31 03:47:48;;;;;;;4.78;3.75;;;;;;;;;;5054921;28;20033;-75
2021/05/31 03:50:14;;;;;;;9.65;4.50;;;;;;;;;;5054918;28;20033;-75
2021/05/31 03:52:40;;;;;;;5.05;3.92;;;;;;;;;;5054808;28;20036;-75
2021/05/31 03:55:07;;;;;;;5.38;3.63;;;;;;;;;;5054318;28;20037;-75
2021/05/31 03:57:34;;;;;;;4.00;3.38;;;;;;;;;;5054557;28;20029;-75
2021/05/31 03:59:59;;;;;;;3.67;3.25;;;;;;;;;;5054558;28;20033;-75
2021/05/31 04:02:25;;;;;;;8.80;3.42;;;;;;;;;;5053837;28;20040;-75
2021/05/31 04:04:53;;;;;;;4.93;3.05;;;;;;;;;;5054755;28;20029;-75
2021/05/31 04:12:49;;;;;;;5.53;4.10;;;;;;;;;;5053278;28;20041;-75
2021/05/31 04:15:15;;;;;;;6.32;4.28;;;;;;;;;;5053396;28;20039;-75
2021/05/31 04:17:40;;;;;;;5.00;4.03;;;;;;;;;;5054164;28;20029;-75
2021/05/31 04:20:06;;;;;;;10.32;4.20;;;;;;;;;;5052883;28;20033;-75
2021/05/31 04:22:32;;;;;;;8.13;4.35;;;;;;;;;;5053757;28;20466;-75
2021/05/31 04:24:57;;;;;;;17.65;3.90;;;;;;;;;;5054059;28;20060;-75
2021/05/31 04:27:23;;;;;;;6.72;4.18;;;;;;;;;;5052762;28;20040;-75
2021/05/31 04:29:50;;;;;;;6.57;4.55;;;;;;;;;;5053634;28;20037;-75
2021/05/31 04:32:15;;;;;;;4.88;4.13;;;;;;;;;;5052678;28;20515;-75
2021/05/31 04:34:41;;;;;;;6.38;4.43;;;;;;;;;;5054211;28;20135;-75
2021/05/31 04:37:06;;;;;;;6.53;4.72;;;;;;;;;;5053931;28;20145;-75
2021/05/31 04:39:32;;;;;;;8.35;4.53;;;;;;;;;;5053140;28;20040;-75
2021/05/31 04:41:57;;;;;;;6.70;4.88;;;;;;;;;;5053138;28;20052;-75
2021/05/31 04:44:23;;;;;;;8.57;4.93;;;;;;;;;;5053826;28;20033;-75
2021/05/31 04:46:48;;;;;;;6.03;4.18;;;;;;;;;;5053593;28;20037;-75
2021/05/31 04:49:13;;;;;;;6.38;4.57;;;;;;;;;;5053583;28;20036;-75
2021/05/31 04:51:39;;;;;;;7.72;4.75;;;;;;;;;;5052593;28;20037;-76
2021/05/31 04:54:05;;;;;;;6.50;4.75;;;;;;;;;;5053346;28;20049;-75
2021/05/31 04:56:30;;;;;;;8.07;4.72;;;;;;;;;;5053158;28;20029;-76
2021/05/31 04:58:55;;;;;;;12.80;5.20;;;;;;;;;;5053475;28;20041;-76
2021/05/31 05:01:21;;;;;;;11.73;5.80;;;;;;;;;;5053357;28;20033;-76
2021/05/31 05:03:47;;;;;;;8.00;5.20;;;;;;;;;;5053434;28;20025;-76
2021/05/31 05:06:12;;;;;;;9.57;5.35;;;;;;;;;;5053396;28;20455;-76
2021/05/31 05:08:38;;;;;;;13.27;6.32;;;;;;;;;;5053431;28;20029;-76
2021/05/31 05:11:03;;;;;;;6.30;5.13;;;;;;;;;;5053245;28;20111;-76
2021/05/31 05:13:29;;;;;;;8.63;5.07;;;;;;;;;;5034582;28;20041;-76
2021/05/31 05:15:54;;;;;;;9.20;6.50;;;;;;;;;;5053402;28;20040;-76
2021/05/31 05:18:20;;;;;;;7.35;6.03;;;;;;;;;;5053087;28;20029;-76
2021/05/31 05:20:45;;;;;;;8.43;5.68;;;;;;;;;;5053271;28;20112;-76
2021/05/31 05:23:11;;;;;;;8.02;6.28;;;;;;;;;;5053000;28;20393;-76
2021/05/31 05:25:36;;;;;;;9.23;6.18;;;;;;;;;;5052166;28;20041;-76
2021/05/31 05:28:02;;;;;;;17.50;8.82;;;;;;;;;;5052846;28;20040;-76
2021/05/31 05:30:32;;;;;;;10.05;6.55;;;;;;;;;;5052983;28;20059;-76
2021/05/31 05:33:01;;;;;;;9.02;7.28;;;;;;;;;;5053886;28;20033;-76
2021/05/31 05:35:47;;;;;;;12.88;7.75;;;;;;;;;;5051420;28;20029;-76
2021/05/31 05:46:30;;;;;;;10.82;7.57;;;;;;;;;;5051531;28;20128;-76
2021/05/31 05:48:55;;;;;;;9.73;7.38;;;;;;;;;;5052630;28;20067;-76
2021/05/31 05:51:21;;;;;;;12.77;8.45;;;;;;;;;;5052398;28;20429;-76
2021/05/31 05:53:48;;;;;;;10.23;7.72;;;;;;;;;;5052654;28;20040;-76
2021/05/31 05:56:21;;;;;;;13.23;8.48;;;;;;;;;;5039400;28;20072;-76
2021/05/31 05:58:47;;;;;;;12.82;8.70;;;;;;;;;;5056527;28;20067;-76
2021/05/31 06:01:15;;;;;;;16.58;9.13;;;;;;;;;;5057035;28;20064;-76
2021/05/31 06:03:41;;;;;;;12.80;8.63;;;;;;;;;;5055494;28;20079;-76
2021/05/31 06:06:07;;;;;;;13.02;8.68;;;;;;;;;;5057275;28;20056;-76
2021/05/31 06:08:33;;;;;;;14.00;9.05;;;;;;;;;;5056516;28;20033;-77
2021/05/31 06:10:59;;;;;;;10.15;8.55;;;;;;;;;;5056849;28;20033;-75
2021/05/31 06:13:25;;;;;;;11.90;8.27;;;;;;;;;;5057230;28;20112;-75
2021/05/31 06:15:54;;;;;;;16.27;8.88;;;;;;;;;;5057363;28;20475;-76
2021/05/31 06:18:20;;;;;;;10.13;7.95;;;;;;;;;;5056404;28;20034;-76
2021/05/31 06:20:46;;;;;;;8.88;6.80;;;;;;;;;;5056235;28;20048;-76
2021/05/31 06:23:11;;;;;;;11.88;7.18;;;;;;;;;;5055658;28;20037;-76
2021/05/31 06:25:37;;;;;;;11.40;7.40;;;;;;;;;;5055892;28;20489;-75
2021/05/31 06:28:07;;;;;;;17.52;6.15;;;;;;;;;;5055742;28;20044;-76
2021/05/31 06:30:38;;;;;;;6.45;4.72;;;;;;;;;;5041464;28;20052;-76
2021/05/31 06:33:05;;;;;;;11.35;5.13;;;;;;;;;;5055476;28;20410;-76
2021/05/31 06:35:31;;;;;;;5.90;4.57;;;;;;;;;;5055892;28;20045;-76
2021/05/31 06:37:57;;;;;;;7.63;4.47;;;;;;;;;;5055592;28;20403;-77
2021/05/31 06:40:24;;;;;;;5.85;4.30;;;;;;;;;;5054572;28;20037;-77
2021/05/31 06:42:49;;;;;;;5.97;4.40;;;;;;;;;;5054482;28;20060;-76
2021/05/31 06:45:23;;;;;;;8.18;4.53;;;;;;;;;;5054554;28;20045;-76
2021/05/31 06:47:49;;;;;;;5.72;4.13;;;;;;;;;;5055329;28;20598;-76
2021/05/31 06:50:15;;;;;;;7.20;3.97;;;;;;;;;;5055753;28;20033;-76
2021/05/31 06:52:40;;;;;;;5.38;3.70;;;;;;;;;;5055407;28;20388;-76
2021/05/31 06:55:06;;;;;;;4.82;3.65;;;;;;;;;;5055459;28;20045;-77
2021/05/31 06:57:33;;;;;;;6.55;4.28;;;;;;;;;;5055347;28;20025;-76
2021/05/31 06:59:58;;;;;;;6.10;3.72;;;;;;;;;;5055285;28;20040;-78
2021/05/31 07:02:23;;;;;;;5.43;3.90;;;;;;;;;;5054474;28;20387;-78
2021/05/31 07:04:50;;;;;;;4.95;3.75;;;;;;;;;;5056285;28;20033;-78
2021/05/31 07:07:19;;;;;;;4.90;3.50;;;;;;;;;;5055368;28;20043;-76
2021/05/31 07:09:45;;;;;;;5.57;3.53;;;;;;;;;;5055116;28;20494;-75
2021/05/31 07:12:11;;;;;;;5.53;3.03;;;;;;;;;;5055892;28;20124;-75
2021/05/31 07:14:38;;;;;;;7.95;3.17;;;;;;;;;;5057340;28;20083;-79
2021/05/31 07:17:03;;;;;;;6.35;3.53;;;;;;;;;;5058053;28;20033;-80
2021/05/31 07:19:29;;;;;;;5.05;2.92;;;;;;;;;;5056253;28;20052;-77
2021/05/31 07:21:55;;;;;;;4.57;2.83;;;;;;;;;;5054402;28;20033;-76
2021/05/31 07:24:21;;;;;;;4.35;3.20;;;;;;;;;;5052166;28;20505;-76
2021/05/31 07:26:46;;;;;;;6.97;3.53;;;;;;;;;;5053649;28;20037;-76
2021/05/31 07:29:12;;;;;;;5.93;2.88;;;;;;;;;;5053606;28;20041;-76
2021/05/31 07:31:37;;;;;;;7.43;4.07;;;;;;;;;;5053872;28;20033;-78
2021/05/31 07:34:03;;;;;;;9.88;3.72;;;;;;;;;;5054474;28;20044;-76
2021/05/31 07:36:29;;;;;;;5.75;3.35;;;;;;;;;;5054425;28;20040;-73
2021/05/31 07:38:55;;;;;;;17.35;4.07;;;;;;;;;;5054507;28;20470;-73
2021/05/31 07:41:20;;;;;;;5.47;2.83;;;;;;;;;;5053400;28;20080;-72
2021/05/31 07:43:46;;;;;;;4.97;3.08;;;;;;;;;;5050599;28;20029;-72
2021/05/31 07:46:13;;;;;;;6.15;3.50;;;;;;;;;;5044670;28;20037;-73
2021/05/31 07:48:41;;;;;;;6.90;2.65;;;;;;;;;;5041726;28;20115;-74
2021/05/31 07:51:16;;;;;;;5.80;2.72;;;;;;;;;;5041756;28;20048;-74
2021/05/31 07:53:43;;;;;;;4.13;2.35;;;;;;;;;;5034150;28;20029;-74
2021/05/31 07:56:09;;;;;;;6.10;2.60;;;;;;;;;;5033706;28;20045;-74
2021/05/31 07:58:35;;;;;;;4.30;2.20;;;;;;;;;;5033288;28;20124;-74
2021/05/31 08:01:02;;;;;;;4.53;2.55;;;;;;;;;;5034137;28;20117;-75
2021/05/31 08:03:28;;;;;;;4.30;2.70;;;;;;;;;;5033795;28;20038;-74
2021/05/31 08:05:53;;;;;;;7.10;2.30;;;;;;;;;;5034100;28;20117;-74
2021/05/31 08:08:19;;;;;;;3.90;2.30;;;;;;;;;;5033857;28;20041;-74
2021/05/31 08:10:44;;;;;;;5.22;2.20;;;;;;;;;;5045581;28;20090;-74
2021/05/31 08:13:09;;;;;;;4.43;1.98;;;;;;;;;;5053885;28;20116;-74
2021/05/31 08:15:35;;;;;;;2.13;1.70;;;;;;;;;;5052567;28;20114;-74
2021/05/31 08:18:00;;;;;;;3.92;2.53;;;;;;;;;;5052723;28;20037;-74
2021/05/31 08:20:26;;;;;;;4.45;2.22;;;;;;;;;;5052650;28;20047;-74
2021/05/31 08:22:51;;;;;;;4.30;2.25;;;;;;;;;;5053760;28;20124;-74
2021/05/31 08:25:17;;;;;;;10.25;2.22;;;;;;;;;;5053586;28;20036;-74
2021/05/31 08:27:44;;;;;;;6.65;2.53;;;;;;;;;;5053390;28;20429;-74
2021/05/31 08:30:09;;;;;;;4.57;2.20;;;;;;;;;;5053465;28;20100;-74
2021/05/31 08:32:35;;;;;;;4.55;2.20;;;;;;;;;;5053398;28;20557;-74
2021/05/31 08:35:00;;;;;;;8.20;1.95;;;;;;;;;;5052392;28;20039;-74
2021/05/31 08:37:26;;;;;;;7.13;2.45;;;;;;;;;;5052400;28;20037;-74
2021/05/31 08:39:54;;;;;;;3.47;2.10;;;;;;;;;;5052546;28;20033;-74
2021/05/31 08:42:19;;;;;;;7.57;2.10;;;;;;;;;;5053195;28;20414;-74
2021/05/31 08:44:45;;;;;;;5.97;2.40;;;;;;;;;;5052139;28;20033;-74
2021/05/31 08:47:10;;;;;;;4.90;2.10;;;;;;;;;;5053129;28;20501;-74
2021/05/31 08:49:36;;;;;;;3.97;1.90;;;;;;;;;;5053387;28;20522;-74
2021/05/31 08:52:01;;;;;;;5.97;2.30;;;;;;;;;;5053278;28;20032;-74
2021/05/31 08:54:27;;;;;;;5.32;3.00;;;;;;;;;;5053014;28;20059;-74
2021/05/31 08:56:52;;;;;;;3.63;1.85;;;;;;;;;;5053151;28;20371;-74
2021/05/31 08:59:17;;;;;;;3.00;1.83;;;;;;;;;;5053118;28;20060;-74
2021/05/31 09:01:43;;;;;;;4.63;2.00;;;;;;;;;;5053064;28;20033;-74
2021/05/31 09:04:13;;;;;;;3.13;1.67;;;;;;;;;;5053038;28;20032;-74
2021/05/31 09:06:39;;;;;;;3.42;1.58;;;;;;;;;;5052933;28;20507;-74
2021/05/31 09:09:04;;;;;;;4.63;2.00;;;;;;;;;;5052683;28;20128;-74
2021/05/31 09:11:30;;;;;;;3.78;1.75;;;;;;;;;;5052934;28;20399;-74
2021/05/31 09:13:56;;;;;;;4.65;1.70;;;;;;;;;;5052777;28;20037;-74
2021/05/31 09:16:27;;;;;;;3.70;1.80;;;;;;;;;;5051575;28;20115;-74
2021/05/31 09:19:03;;;;;;;5.75;1.80;;;;;;;;;;5052897;28;20041;-74
2021/05/31 09:21:30;;;;;;;3.05;1.60;;;;;;;;;;5052884;28;20044;-74
2021/05/31 09:23:59;;;;;;;2.90;1.75;;;;;;;;;;5052400;28;20449;-74
2021/05/31 09:26:25;;;;;;;5.85;1.70;;;;;;;;;;5051341;28;20080;-74
2021/05/31 09:29:04;;;;;;;5.15;1.70;;;;;;;;;;5052592;28;20482;-74
2021/05/31 09:31:30;;;;;;;5.05;1.85;;;;;;;;;;5052747;28;20043;-74
2021/05/31 09:34:03;;;;;;;4.63;1.42;;;;;;;;;;5052525;28;20032;-74
2021/05/31 09:36:29;;;;;;;2.42;1.60;;;;;;;;;;5052586;28;20041;-74
2021/05/31 09:38:56;;;;;;;4.25;1.90;;;;;;;;;;5052292;28;20098;-74
2021/05/31 09:41:22;;;;;;;4.93;2.17;;;;;;;;;;5051332;28;20041;-74
2021/05/31 09:43:56;;;;;;;4.70;1.85;;;;;;;;;;5052571;28;20406;-74
2021/05/31 09:46:38;;;;;;;5.38;1.92;;;;;;;;;;5052666;28;20037;-74
2021/05/31 09:49:13;;;;;;;5.50;1.80;;;;;;;;;;5052480;28;20491;-74
2021/05/31 09:51:59;;;;;;;;;;;;;;;;;;5052852;28;20072;-74
2021/05/31 09:54:33;;;;;;;9.05;1.63;;;;;;;;;;5051154;28;19916;-74
2021/05/31 09:57:01;;;;;;;3.35;1.60;;;;;;;;;;5050851;28;20037;-74
2021/05/31 09:59:29;;;;;;;2.90;1.52;;;;;;;;;;5052066;28;20410;-74
2021/05/31 10:02:04;;;;;;;4.40;1.73;;;;;;;;;;5052378;28;20112;-74
2021/05/31 10:09:39;;;;;;;4.82;1.70;;;;;;;;;;5052252;28;20128;-74
2021/05/31 10:12:05;;;;;;;3.83;1.80;;;;;;;;;;5051309;28;20116;-74
2021/05/31 10:14:31;;;;;;;3.17;1.50;;;;;;;;;;5052872;28;20550;-74
2021/05/31 10:16:59;;;;;;;6.47;1.30;;;;;;;;;;5052594;28;20467;-74
2021/05/31 10:19:24;;;;;;;3.33;1.75;;;;;;;;;;5052749;28;20044;-74
2021/05/31 10:21:50;;;;;;;5.15;2.03;;;;;;;;;;5052845;28;20387;-74
2021/05/31 10:24:15;;;;;;;4.47;1.60;;;;;;;;;;5052646;28;20040;-74
2021/05/31 10:26:42;;;;;;;3.60;1.58;;;;;;;;;;5052351;28;20095;-74
2021/05/31 10:29:08;;;;;;;5.45;1.55;;;;;;;;;;5052552;28;20497;-74
2021/05/31 10:31:45;;;;;;;4.88;1.65;;;;;;;;;;5051471;28;20072;-74
2021/05/31 10:34:22;;;;;;;10.65;1.63;;;;;;;;;;5052638;28;20033;-74
2021/05/31 10:36:51;;;;;;;5.32;2.25;;;;;;;;;;5051338;28;20029;-74
2021/05/31 10:39:25;;;;;;;5.78;1.52;;;;;;;;;;5051513;28;20067;-74
2021/05/31 10:41:50;;;;;;;5.15;1.75;;;;;;;;;;5055312;28;20548;-74
2021/05/31 10:44:19;;;;;;;4.07;1.60;;;;;;;;;;5055982;28;20032;-74
2021/05/31 10:46:45;;;;;;;4.18;1.55;;;;;;;;;;5056041;28;20037;-76
2021/05/31 10:49:16;;;;;;;2.25;1.40;;;;;;;;;;5056226;28;20045;-75
2021/05/31 10:51:42;;;;;;;2.92;1.60;;;;;;;;;;5056171;28;20025;-74
2021/05/31 10:54:09;;;;;;;3.63;1.50;;;;;;;;;;5055888;28;20112;-74
2021/05/31 10:56:34;;;;;;;4.90;1.73;;;;;;;;;;5055945;28;20131;-74
2021/05/31 10:59:01;;;;;;;2.97;1.42;;;;;;;;;;5056096;28;20163;-74
2021/05/31 11:01:26;;;;;;;11.25;3.10;;;;;;;;;;5054828;28;20485;-74
2021/05/31 11:04:03;;;;;;;5.00;1.52;;;;;;;;;;5055035;28;20037;-74
2021/05/31 11:06:43;;;;;;;3.47;1.38;;;;;;;;;;5055360;28;20045;-75
2021/05/31 11:09:20;;;;;;;5.07;1.88;;;;;;;;;;5055717;28;20127;-75
2021/05/31 11:11:52;;;;;;;5.00;2.33;;;;;;;;;;5055307;28;20498;-74
2021/05/31 11:14:35;;;;;;;2.95;2.10;;;;;;;;;;5055323;28;20475;-74
2021/05/31 11:17:08;;;;;;;7.00;2.42;;;;;;;;;;5054850;28;20043;-74
2021/05/31 11:19:40;;;;;;;13.80;3.15;;;;;;;;;;5055672;28;20124;-74
2021/05/31 11:22:12;;;;;;;3.20;2.15;;;;;;;;;;5053930;28;20060;-74
2021/05/31 11:24:38;;;;;;;4.03;2.65;;;;;;;;;;5055084;28;20043;-74
2021/05/31 11:27:04;;;;;;;4.03;2.25;;;;;;;;;;5055212;28;20041;-74
2021/05/31 11:29:29;;;;;;;4.50;2.80;;;;;;;;;;5055302;28;20040;-74
2021/05/31 11:31:55;;;;;;;5.35;3.35;;;;;;;;;;5055276;28;20063;-75
2021/05/31 11:34:20;;;;;;;4.43;2.70;;;;;;;;;;5054020;28;20033;-74
2021/05/31 11:36:46;;;;;;;5.55;2.97;;;;;;;;;;5053921;28;20036;-74
2021/05/31 11:39:15;;;;;;;6.15;3.00;;;;;;;;;;5055181;28;20445;-74
2021/05/31 11:41:43;;;;;;;7.63;2.83;;;;;;;;;;5053608;28;20052;-74
2021/05/31 11:44:12;;;;;;;7.70;2.90;;;;;;;;;;5054176;28;20438;-74
2021/05/31 11:46:54;;;;;;;6.07;2.40;;;;;;;;;;5054891;28;20061;-74
2021/05/31 11:49:22;;;;;;;3.80;2.00;;;;;;;;;;5054953;28;20029;-74
2021/05/31 11:51:56;;;;;;;4.22;2.33;;;;;;;;;;5054826;28;20033;-75
2021/05/31 11:54:22;;;;;;;5.88;2.33;;;;;;;;;;5054663;28;20025;-74
2021/05/31 11:56:48;;;;;;;8.10;2.33;;;;;;;;;;5054786;28;20056;-74
2021/05/31 11:59:16;;;;;;;5.75;2.10;;;;;;;;;;5054868;28;20475;-75
2021/05/31 12:01:49;;;;;;;2.95;1.85;;;;;;;;;;5054838;28;20037;-74
2021/05/31 12:04:14;;;;;;;5.97;2.00;;;;;;;;;;5053432;28;20036;-74
2021/05/31 12:06:40;;;;;;;6.18;2.20;;;;;;;;;;5051755;28;20029;-74
2021/05/31 12:09:15;;;;;;;5.80;2.05;;;;;;;;;;5054036;28;20410;-74
2021/05/31 12:11:40;;;;;;;;;;;;;;;;;;5054353;28;20036;-74
2021/05/31 12:14:06;;;;;;;3.22;2.13;;;;;;;;;;5054090;28;19912;-74
2021/05/31 12:16:31;;;;;;;5.70;2.20;;;;;;;;;;5054426;28;20048;-74
2021/05/31 12:18:57;;;;;;;4.43;2.25;;;;;;;;;;5053491;28;20037;-74
2021/05/31 12:21:22;;;;;;;7.45;2.08;;;;;;;;;;5054494;28;20045;-74
2021/05/31 12:23:49;;;;;;;6.90;2.05;;;;;;;;;;5053836;28;20033;-74
2021/05/31 12:26:20;;;;;;;6.28;1.98;;;;;;;;;;5054034;28;20033;-74
2021/05/31 12:28:46;;;;;;;2.95;1.88;;;;;;;;;;5054059;28;20102;-74
2021/05/31 12:31:13;;;;;;;11.02;2.50;;;;;;;;;;5035753;28;20036;-74
2021/05/31 12:33:39;;;;;;;3.35;1.90;;;;;;;;;;5053795;28;20075;-74
2021/05/31 12:36:05;;;;;;;3.20;1.95;;;;;;;;;;5053614;28;20488;-74
2021/05/31 12:38:31;;;;;;;7.72;1.80;;;;;;;;;;5053639;28;20040;-75
2021/05/31 12:40:57;;;;;;;4.28;1.95;;;;;;;;;;5053557;28;20373;-75
2021/05/31 12:43:34;;;;;;;3.53;1.85;;;;;;;;;;5053560;28;20037;-75
2021/05/31 12:46:01;;;;;;;3.65;1.92;;;;;;;;;;5053636;28;20530;-75
2021/05/31 12:48:27;;;;;;;4.80;1.88;;;;;;;;;;5053652;28;20033;-74
2021/05/31 12:50:55;;;;;;;7.45;2.40;;;;;;;;;;5052367;28;20127;-74
2021/05/31 12:53:27;;;;;;;6.40;2.20;;;;;;;;;;5053818;28;20056;-74
2021/05/31 12:55:59;;;;;;;4.60;2.65;;;;;;;;;;5052626;28;20036;-74
2021/05/31 12:58:28;;;;;;;6.03;2.05;;;;;;;;;;5053542;28;20051;-75
2021/05/31 13:00:53;;;;;;;5.30;2.03;;;;;;;;;;5053839;28;20041;-75
2021/05/31 13:03:20;;;;;;;7.03;2.15;;;;;;;;;;5052929;28;20110;-75
2021/05/31 13:05:51;;;;;;;3.20;2.22;;;;;;;;;;5053354;28;20028;-75
2021/05/31 13:08:17;;;;;;;5.93;2.30;;;;;;;;;;5053444;28;20047;-74
2021/05/31 13:10:47;;;;;;;6.22;2.15;;;;;;;;;;5052605;28;20044;-74
2021/05/31 13:13:15;;;;;;;7.40;2.03;;;;;;;;;;5053332;28;20037;-74
2021/05/31 13:15:46;;;;;;;6.47;2.30;;;;;;;;;;5053444;28;20479;-74
2021/05/31 13:18:21;;;;;;;3.53;2.08;;;;;;;;;;5052810;28;20128;-74
2021/05/31 13:20:53;;;;;;;8.02;2.28;;;;;;;;;;5053462;28;20037;-75
2021/05/31 13:23:21;;;;;;;3.35;2.15;;;;;;;;;;5052989;28;20048;-74
2021/05/31 13:25:50;;;;;;;4.97;2.40;;;;;;;;;;5053118;28;20037;-73
2021/05/31 13:28:19;;;;;;;4.43;2.40;;;;;;;;;;5052929;28;20076;-74
2021/05/31 13:30:46;;;;;;;5.45;2.58;;;;;;;;;;5053212;28;20033;-74
2021/05/31 13:33:12;;;;;;;7.93;2.63;;;;;;;;;;5053242;28;20033;-74
2021/05/31 13:35:40;;;;;;;3.85;2.20;;;;;;;;;;5053237;28;20044;-74
2021/05/31 13:38:06;;;;;;;3.80;2.15;;;;;;;;;;5053150;28;20029;-74
2021/05/31 13:40:35;;;;;;;4.72;2.55;;;;;;;;;;5052106;28;20040;-74
2021/05/31 13:43:05;;;;;;;3.00;2.00;;;;;;;;;;5051598;28;20055;-74
2021/05/31 13:45:32;;;;;;;8.25;2.60;;;;;;;;;;5051796;28;20037;-74
2021/05/31 13:47:57;;;;;;;3.92;2.33;;;;;;;;;;5052709;28;20092;-74
2021/05/31 13:50:25;;;;;;;8.98;2.70;;;;;;;;;;5053040;28;20560;-74
2021/05/31 13:52:50;;;;;;;5.15;2.38;;;;;;;;;;5052970;28;20025;-74
2021/05/31 13:55:16;;;;;;;6.65;2.42;;;;;;;;;;5052722;28;20546;-75
2021/05/31 13:57:42;;;;;;;4.07;2.22;;;;;;;;;;5051565;28;20437;-74
2021/05/31 14:00:11;;;;;;;12.25;2.55;;;;;;;;;;5053034;28;20115;-75
2021/05/31 14:02:41;;;;;;;4.72;2.33;;;;;;;;;;5051718;28;20035;-74
2021/05/31 14:05:07;;;;;;;6.00;2.65;;;;;;;;;;5052426;28;20109;-74
2021/05/31 14:07:33;;;;;;;7.55;2.70;;;;;;;;;;5052566;28;20112;-75
2021/05/31 14:09:59;;;;;;;3.53;2.47;;;;;;;;;;5052393;28;20109;-75
2021/05/31 14:12:25;;;;;;;4.18;2.20;;;;;;;;;;5052724;28;20048;-75
2021/05/31 14:14:51;;;;;;;5.70;2.33;;;;;;;;;;5052646;28;20044;-75
2021/05/31 14:17:16;;;;;;;5.90;2.35;;;;;;;;;;5056683;28;20029;-75
2021/05/31 14:19:42;;;;;;;11.00;2.95;;;;;;;;;;5056795;28;20033;-75
2021/05/31 14:22:07;;;;;;;6.18;2.60;;;;;;;;;;5055409;28;20505;-75
2021/05/31 14:24:32;;;;;;;4.78;2.40;;;;;;;;;;5056538;28;20040;-74
2021/05/31 14:26:59;;;;;;;4.25;2.47;;;;;;;;;;5055982;28;20178;-75
2021/05/31 14:29:25;;;;;;;6.00;2.70;;;;;;;;;;5055505;28;20046;-75
2021/05/31 14:31:50;;;;;;;5.07;2.50;;;;;;;;;;5055279;28;20090;-75
2021/05/31 14:34:16;;;;;;;14.50;2.47;;;;;;;;;;5055020;28;20132;-75
2021/05/31 14:36:41;;;;;;;6.20;2.72;;;;;;;;;;5056343;28;20037;-74
2021/05/31 14:39:07;;;;;;;4.20;2.20;;;;;;;;;;5055508;28;20041;-75
2021/05/31 14:41:34;;;;;;;3.83;2.05;;;;;;;;;;5055758;28;20052;-76
2021/05/31 14:44:00;;;;;;;5.90;2.42;;;;;;;;;;5056272;28;20033;-75
2021/05/31 14:46:26;;;;;;;7.50;2.65;;;;;;;;;;5056463;28;20048;-76
2021/05/31 14:48:51;;;;;;;7.93;3.28;;;;;;;;;;5056293;28;20436;-75
2021/05/31 14:51:17;;;;;;;5.07;2.40;;;;;;;;;;5055881;28;20123;-75
2021/05/31 14:53:44;;;;;;;5.60;2.60;;;;;;;;;;5055666;28;20061;-74
2021/05/31 14:56:10;;;;;;;4.05;2.40;;;;;;;;;;5055448;28;20041;-74
2021/05/31 14:58:37;;;;;;;9.60;3.00;;;;;;;;;;5055940;28;20129;-74
2021/05/31 15:01:03;;;;;;;6.95;2.70;;;;;;;;;;5055921;28;20033;-74
2021/05/31 15:03:29;;;;;;;5.43;2.33;;;;;;;;;;5056297;28;20036;-74